createdAt,value
2022-10-24T00:00:24.363Z,15.20
2022-10-24T00:02:51.258Z,15.60
2022-10-24T00:05:18.422Z,15.71
2022-10-24T00:07:45.599Z,15.81
2022-10-24T00:10:13.822Z,15.94
2022-10-24T00:12:54.655Z,15.84
2022-10-24T00:15:22.263Z,15.86
2022-10-24T00:17:50.672Z,15.94
2022-10-24T00:20:17.874Z,15.86
2022-10-24T00:22:45.500Z,15.77
2022-10-24T00:25:15.599Z,15.53
2022-10-24T00:27:44.867Z,15.52
2022-10-24T00:30:14.578Z,15.44
2022-10-24T00:32:42.188Z,15.34
2022-10-24T00:35:14.669Z,15.27
2022-10-24T00:37:42.064Z,15.32
2022-10-24T00:40:12.010Z,15.20
2022-10-24T00:42:39.676Z,15.29
2022-10-24T00:45:25.425Z,15.32
2022-10-24T00:47:57.059Z,15.01
2022-10-24T00:50:29.693Z,15.28
2022-10-24T00:52:56.861Z,15.18
2022-10-24T00:55:23.882Z,14.96
2022-10-24T00:58:05.664Z,14.41
2022-10-24T01:00:36.329Z,14.78
2022-10-24T01:03:06.357Z,14.67
2022-10-24T01:06:02.580Z,14.73
2022-10-24T01:08:42.105Z,14.98
2022-10-24T01:11:47.413Z,14.22
2022-10-24T01:14:24.954Z,14.24
2022-10-24T01:17:16.223Z,14.50
2022-10-24T01:20:24.888Z,14.19
2022-10-24T01:23:01.217Z,14.61
2022-10-24T01:25:54.695Z,14.56
2022-10-24T01:28:47.731Z,14.48
2022-10-24T01:31:39.047Z,14.59
2022-10-24T01:34:14.971Z,14.42
2022-10-24T01:36:48.307Z,14.39
2022-10-24T01:39:17.495Z,14.12
2022-10-24T01:41:46.580Z,14.47
2022-10-24T01:44:24.984Z,14.60
2022-10-24T01:49:53.145Z,14.15
2022-10-24T01:52:20.570Z,14.57
2022-10-24T01:54:54.470Z,14.52
2022-10-24T01:57:32.807Z,14.67
2022-10-24T02:00:00.400Z,14.70
2022-10-24T02:02:46.940Z,14.52
2022-10-24T02:05:29.519Z,14.40
2022-10-24T02:08:02.658Z,14.56
2022-10-24T02:10:36.463Z,14.52
2022-10-24T02:13:13.161Z,14.64
2022-10-24T02:15:46.490Z,14.66
2022-10-24T02:18:13.570Z,14.53
2022-10-24T02:20:47.703Z,14.37
2022-10-24T02:23:18.512Z,14.67
2022-10-24T02:25:50.975Z,14.50
2022-10-24T02:28:24.062Z,14.65
2022-10-24T02:30:59.131Z,14.11
2022-10-24T02:33:30.032Z,14.23
2022-10-24T02:35:59.168Z,14.24
2022-10-24T02:38:37.460Z,14.38
2022-10-24T02:41:06.505Z,13.91
2022-10-24T02:43:40.191Z,14.09
2022-10-24T02:46:10.884Z,14.28
2022-10-24T03:32:51.445Z,14.42
2022-10-24T03:35:19.251Z,14.32
2022-10-24T03:37:46.500Z,14.26
2022-10-24T03:40:13.482Z,14.07
2022-10-24T03:42:44.019Z,14.26
2022-10-24T03:45:14.404Z,14.20
2022-10-24T03:47:43.586Z,14.54
2022-10-24T03:50:10.515Z,14.54
2022-10-24T03:52:38.597Z,14.53
2022-10-24T03:55:05.867Z,14.59
2022-10-24T03:57:33.180Z,14.36
2022-10-24T04:37:17.728Z,14.50
2022-10-24T04:39:55.997Z,14.72
2022-10-24T04:42:27.672Z,14.73
2022-10-24T04:45:04.030Z,14.88
2022-10-24T04:47:30.890Z,14.71
2022-10-24T04:49:57.835Z,14.70
2022-10-24T04:52:24.718Z,14.19
2022-10-24T04:54:51.549Z,14.82
2022-10-24T04:57:18.502Z,14.97
2022-10-24T04:59:45.640Z,14.51
2022-10-24T05:02:12.550Z,14.99
2022-10-24T05:04:39.498Z,15.03
2022-10-24T05:07:07.964Z,14.83
2022-10-24T05:09:35.533Z,14.84
2022-10-24T05:12:03.379Z,14.82
2022-10-24T05:14:31.822Z,14.81
2022-10-24T05:17:17.126Z,14.96
2022-10-24T05:20:04.666Z,14.89
2022-10-24T05:22:36.270Z,14.77
2022-10-24T05:25:03.286Z,14.77
2022-10-24T05:27:30.950Z,14.83
2022-10-24T05:30:02.521Z,14.83
2022-10-24T05:32:35.989Z,14.80
2022-10-24T05:35:20.728Z,14.33
2022-10-24T05:38:08.326Z,14.46
2022-10-24T05:40:39.161Z,14.60
2022-10-24T05:43:07.500Z,14.53
2022-10-24T05:45:36.821Z,14.69
2022-10-24T05:48:05.428Z,14.56
2022-10-24T05:50:35.158Z,14.56
2022-10-24T05:53:07.248Z,14.44
2022-10-24T05:55:35.592Z,14.52
2022-10-24T06:25:28.520Z,14.87
2022-10-24T06:27:56.256Z,14.88
2022-10-24T06:30:45.188Z,15.51
2022-10-24T06:33:42.690Z,15.43
2022-10-24T06:39:39.832Z,15.41
2022-10-24T07:45:07.562Z,22.43
2022-10-24T07:48:13.478Z,22.27
2022-10-24T07:51:07.665Z,22.60
2022-10-24T07:53:46.686Z,22.04
2022-10-24T07:56:39.348Z,21.92
2022-10-24T07:59:58.456Z,21.30
2022-10-24T08:02:40.675Z,21.15
2022-10-24T08:05:25.966Z,20.32
2022-10-24T08:08:40.462Z,20.18
2022-10-24T08:51:53.943Z,19.74
2022-10-24T08:55:47.702Z,19.39
2022-10-24T08:58:25.352Z,19.73
2022-10-24T09:02:22.728Z,19.73
2022-10-24T09:19:42.097Z,20.27
2022-10-24T09:39:37.863Z,20.70
2022-10-24T09:52:43.607Z,21.50
2022-10-24T09:55:54.439Z,21.78
2022-10-24T10:02:09.215Z,22.15
2022-10-24T10:24:06.371Z,23.41
2022-10-24T10:30:45.451Z,24.13
2022-10-24T10:37:20.430Z,23.52
2022-10-24T10:40:15.373Z,24.07
2022-10-24T10:43:21.399Z,24.65
2022-10-24T10:46:36.529Z,24.53
2022-10-24T10:52:42.906Z,25.07
2022-10-24T10:55:46.700Z,25.11
2022-10-24T10:58:31.458Z,25.56
2022-10-24T11:01:17.329Z,24.48
2022-10-24T11:07:22.410Z,24.65
2022-10-24T11:10:06.582Z,24.50
2022-10-24T11:15:21.807Z,25.33
2022-10-24T11:17:58.590Z,25.66
2022-10-24T11:20:57.571Z,25.86
2022-10-24T11:23:46.535Z,26.02
2022-10-24T11:29:08.039Z,26.52
2022-10-24T11:35:21.467Z,26.77
2022-10-24T11:38:09.037Z,27.03
2022-10-24T11:40:38.487Z,27.42
2022-10-24T11:43:11.585Z,27.86
2022-10-24T11:45:58.476Z,27.01
2022-10-24T11:48:28.492Z,26.15
2022-10-24T11:51:22.536Z,25.43
2022-10-24T11:53:55.830Z,26.10
2022-10-24T11:56:31.979Z,25.46
2022-10-24T11:59:04.379Z,25.98
2022-10-24T12:02:10.133Z,26.12
2022-10-24T12:04:55.292Z,26.52
2022-10-24T12:07:40.966Z,26.55
2022-10-24T12:10:21.338Z,26.02
2022-10-24T12:13:09.955Z,26.49
2022-10-24T12:18:43.639Z,25.72
2022-10-24T12:21:15.434Z,26.17
2022-10-24T12:23:58.893Z,25.02
2022-10-24T12:26:36.067Z,25.36
2022-10-24T12:29:06.397Z,24.42
2022-10-24T12:31:37.670Z,24.57
2022-10-24T12:34:17.007Z,25.15
2022-10-24T12:37:03.071Z,24.68
2022-10-24T12:39:37.297Z,24.06
2022-10-24T12:42:17.552Z,23.48
2022-10-24T12:44:45.334Z,24.26
2022-10-24T12:47:32.001Z,23.56
2022-10-24T12:50:22.134Z,24.35
2022-10-24T12:53:12.105Z,24.27
2022-10-24T12:55:39.853Z,24.61
2022-10-24T12:58:26.665Z,23.49
2022-10-24T13:01:20.631Z,24.49
2022-10-24T13:04:15.120Z,24.62
2022-10-24T13:07:02.133Z,23.32
2022-10-24T13:09:29.117Z,23.73
2022-10-24T13:11:56.545Z,24.57
2022-10-24T13:14:56.326Z,25.24
2022-10-24T13:17:32.223Z,24.71
2022-10-24T13:20:07.405Z,25.29
2022-10-24T13:22:45.143Z,25.63
2022-10-24T13:25:44.017Z,25.47
2022-10-24T13:31:32.827Z,25.86
2022-10-24T13:38:09.520Z,25.93
2022-10-24T13:40:37.107Z,26.17
2022-10-24T13:46:42.501Z,25.80
2022-10-24T13:52:33.334Z,25.48
2022-10-24T13:55:04.134Z,25.17
2022-10-24T13:57:56.647Z,25.33
2022-10-24T14:00:41.107Z,25.12
2022-10-24T14:03:17.612Z,24.15
2022-10-24T14:06:30.101Z,24.76
2022-10-24T14:09:07.446Z,24.68
2022-10-24T14:11:49.923Z,24.09
2022-10-24T14:14:40.169Z,24.59
2022-10-24T14:18:07.360Z,24.31
2022-10-24T14:20:35.839Z,24.25
2022-10-24T14:23:31.726Z,23.85
2022-10-24T14:26:20.205Z,23.88
2022-10-24T14:29:07.496Z,23.38
2022-10-24T14:31:36.000Z,23.90
2022-10-24T14:34:06.371Z,22.81
2022-10-24T14:36:37.242Z,22.39
2022-10-24T14:39:07.380Z,22.65
2022-10-24T14:41:40.280Z,22.62
2022-10-24T14:44:14.686Z,22.78
2022-10-24T14:47:00.150Z,21.96
2022-10-24T14:49:49.766Z,21.98
2022-10-24T14:52:49.013Z,22.17
2022-10-24T14:55:35.637Z,22.12
2022-10-24T14:58:20.099Z,21.76
2022-10-24T15:00:46.953Z,21.60
2022-10-24T15:03:13.857Z,21.06
2022-10-24T15:05:41.050Z,21.05
2022-10-24T15:08:21.959Z,21.21
2022-10-24T15:10:49.437Z,21.49
2022-10-24T15:13:18.315Z,21.79
2022-10-24T15:15:55.869Z,21.84
2022-10-24T15:18:24.621Z,21.92
2022-10-24T15:20:52.922Z,21.82
2022-10-24T15:23:26.843Z,21.87
2022-10-24T15:26:00.460Z,21.70
2022-10-24T15:28:45.670Z,21.85
2022-10-24T15:31:14.331Z,21.84
2022-10-24T15:33:41.366Z,22.02
2022-10-24T15:36:16.204Z,22.04
2022-10-24T15:38:43.229Z,22.16
2022-10-24T15:41:10.352Z,22.18
2022-10-24T15:43:37.104Z,21.90
2022-10-24T15:46:03.935Z,21.75
2022-10-24T15:48:30.919Z,20.18
2022-10-24T15:50:58.526Z,19.80
2022-10-24T15:53:25.342Z,19.76
2022-10-24T15:55:52.297Z,20.44
2022-10-24T15:58:19.183Z,20.56
2022-10-24T16:00:46.095Z,20.43
2022-10-24T16:03:15.932Z,20.26
2022-10-24T16:05:44.907Z,20.45
2022-10-24T16:08:13.619Z,20.73
2022-10-24T16:11:27.062Z,20.70
2022-10-24T16:14:21.762Z,19.62
2022-10-24T16:17:32.833Z,20.14
2022-10-24T16:32:24.837Z,18.80
2022-10-24T16:34:52.789Z,18.73
2022-10-24T16:37:20.551Z,19.17
2022-10-24T16:39:47.438Z,18.41
2022-10-24T16:42:14.602Z,18.12
2022-10-24T16:44:41.460Z,17.51
2022-10-24T16:47:10.276Z,17.87
2022-10-24T16:49:37.117Z,18.11
2022-10-24T16:52:03.964Z,18.19
2022-10-24T16:54:32.073Z,18.17
2022-10-24T16:56:58.863Z,18.36
2022-10-24T16:59:26.555Z,17.99
2022-10-24T17:01:59.874Z,18.50
2022-10-24T17:04:30.258Z,18.93
2022-10-24T17:07:00.445Z,19.14
2022-10-24T17:09:27.339Z,19.04
2022-10-24T17:11:56.659Z,18.31
2022-10-24T17:14:23.439Z,18.05
2022-10-24T17:16:50.385Z,18.66
2022-10-24T17:19:17.944Z,18.76
2022-10-24T17:21:47.154Z,18.85
2022-10-24T17:24:14.761Z,18.58
2022-10-24T17:26:42.301Z,17.61
2022-10-24T17:29:12.883Z,18.09
2022-10-24T17:31:39.754Z,17.92
2022-10-24T17:34:06.836Z,17.52
2022-10-24T17:36:35.369Z,17.57
2022-10-24T17:39:09.275Z,17.77
2022-10-24T17:41:39.485Z,18.00
2022-10-24T17:44:06.567Z,18.42
2022-10-24T17:46:33.495Z,18.47
2022-10-24T17:49:00.293Z,18.47
2022-10-24T17:51:27.785Z,17.91
2022-10-24T17:53:54.580Z,18.19
2022-10-24T17:56:24.786Z,18.58
2022-10-24T17:58:52.708Z,18.57
2022-10-24T18:01:22.979Z,18.83
2022-10-24T18:03:50.223Z,18.88
2022-10-24T18:06:17.514Z,19.13
2022-10-24T18:08:44.621Z,18.75
2022-10-24T18:11:13.082Z,17.81
2022-10-24T18:13:40.113Z,18.11
2022-10-24T18:16:07.955Z,18.35
2022-10-24T18:18:35.341Z,18.56
2022-10-24T18:21:06.272Z,17.49
2022-10-24T18:23:34.530Z,18.13
2022-10-24T18:26:06.493Z,17.99
2022-10-24T18:28:36.521Z,18.02
2022-10-24T18:31:07.837Z,18.61
2022-10-24T18:33:34.729Z,17.52
2022-10-24T18:36:12.203Z,18.36
2022-10-24T18:38:40.351Z,18.39
2022-10-24T18:41:25.787Z,18.38
2022-10-24T18:43:52.730Z,18.50
2022-10-24T18:46:20.513Z,18.57
2022-10-24T18:48:47.840Z,18.63
2022-10-24T18:59:04.914Z,17.73
2022-10-24T19:11:56.514Z,18.21
2022-10-24T19:14:24.733Z,18.05
2022-10-24T19:17:01.737Z,18.27
2022-10-24T19:19:30.538Z,18.39
2022-10-24T19:21:57.504Z,18.35
2022-10-24T19:24:24.345Z,17.53
2022-10-24T19:26:51.255Z,17.52
2022-10-24T19:29:18.227Z,17.98
2022-10-24T19:31:45.886Z,17.92
2022-10-24T19:34:13.334Z,18.20
2022-10-24T19:36:40.221Z,18.23
2022-10-24T19:39:07.388Z,18.23
2022-10-24T19:41:34.252Z,18.03
2022-10-24T19:44:01.495Z,18.22
2022-10-24T19:46:28.519Z,18.19
2022-10-24T19:48:55.655Z,18.22
2022-10-24T19:51:23.541Z,17.96
2022-10-24T19:53:52.075Z,18.17
2022-10-24T19:56:23.900Z,18.01
2022-10-24T19:58:52.659Z,18.19
2022-10-24T20:01:21.519Z,18.12
2022-10-24T20:03:49.532Z,18.04
2022-10-24T20:06:17.166Z,18.06
2022-10-24T20:08:46.611Z,18.18
2022-10-24T20:11:20.952Z,18.24
2022-10-24T20:13:48.380Z,18.12
2022-10-24T20:16:15.462Z,18.06
2022-10-24T20:18:45.628Z,17.98
2022-10-24T20:21:13.621Z,16.75
2022-10-24T20:23:41.946Z,16.98
2022-10-24T20:26:13.577Z,17.49
2022-10-24T20:28:43.478Z,17.66
2022-10-24T20:31:20.653Z,17.74
2022-10-24T20:33:48.062Z,17.68
2022-10-24T20:36:14.863Z,17.93
2022-10-24T20:38:41.866Z,18.07
2022-10-24T20:41:08.783Z,18.34
2022-10-24T20:43:35.760Z,18.18
2022-10-24T20:46:06.406Z,18.11
2022-10-24T20:48:34.234Z,17.97
2022-10-24T20:51:06.952Z,18.19
2022-10-24T20:53:33.804Z,18.20
2022-10-24T20:56:27.065Z,18.36
2022-10-24T20:58:55.240Z,18.65
2022-10-24T21:01:23.839Z,18.03
2022-10-24T21:03:51.398Z,18.31
2022-10-24T21:06:28.809Z,18.03
2022-10-24T21:08:57.342Z,18.37
2022-10-24T21:11:26.438Z,18.38
2022-10-24T21:13:54.534Z,18.54
2022-10-24T21:16:21.798Z,18.36
2022-10-24T21:18:48.771Z,18.16
2022-10-24T21:21:16.261Z,18.26
2022-10-24T21:23:43.139Z,17.80
2022-10-24T21:26:13.738Z,18.15
2022-10-24T21:28:40.752Z,18.17
2022-10-24T21:31:09.296Z,17.83
2022-10-24T21:33:36.617Z,18.32
2022-10-24T21:36:07.434Z,18.25
2022-10-24T21:38:34.700Z,18.32
2022-10-24T21:41:02.806Z,18.20
2022-10-24T21:43:31.157Z,18.28
2022-10-24T21:46:18.900Z,18.47
2022-10-24T21:48:45.802Z,18.31
2022-10-24T21:51:14.278Z,18.27
2022-10-24T21:53:44.399Z,18.36
2022-10-24T21:56:12.952Z,18.50
2022-10-24T21:58:39.855Z,18.24
2022-10-24T22:01:11.310Z,18.50
2022-10-24T22:03:38.820Z,18.67
2022-10-24T22:06:06.142Z,18.51
2022-10-24T22:08:33.066Z,17.77
2022-10-24T22:11:01.168Z,18.63
2022-10-24T22:13:28.064Z,18.50
2022-10-24T22:15:55.336Z,18.67
2022-10-24T22:18:22.561Z,18.85
2022-10-24T22:20:49.789Z,18.76
2022-10-24T22:23:16.758Z,18.82
2022-10-24T22:25:43.577Z,18.95
2022-10-24T22:28:10.888Z,18.89
2022-10-24T22:30:38.257Z,19.05
2022-10-24T22:33:05.548Z,19.05
2022-10-24T22:35:32.599Z,18.90
2022-10-24T22:37:59.597Z,19.15
2022-10-24T22:40:27.642Z,19.09
2022-10-24T22:42:54.904Z,19.03
2022-10-24T22:45:22.108Z,18.91
2022-10-24T22:48:07.513Z,18.97
2022-10-24T22:50:38.095Z,18.85
2022-10-24T22:53:08.242Z,18.79
2022-10-24T22:55:37.272Z,18.83
2022-10-24T22:58:04.156Z,18.90
2022-10-24T23:00:31.233Z,18.94
2022-10-24T23:03:04.287Z,18.90
2022-10-24T23:05:36.418Z,18.99
2022-10-24T23:08:12.762Z,18.95
2022-10-24T23:10:40.326Z,19.02
2022-10-24T23:13:07.262Z,18.96
2022-10-24T23:15:34.161Z,18.49
2022-10-24T23:18:01.112Z,18.58
2022-10-24T23:20:30.840Z,18.56
2022-10-24T23:23:09.425Z,18.12
2022-10-24T23:25:47.406Z,18.19
2022-10-24T23:28:17.460Z,18.18
2022-10-24T23:30:44.399Z,17.98
2022-10-24T23:33:13.917Z,17.82
2022-10-24T23:35:41.006Z,17.62
2022-10-24T23:38:10.747Z,17.38
2022-10-24T23:40:37.842Z,17.67
2022-10-24T23:43:05.017Z,18.01
2022-10-24T23:45:36.943Z,17.95
2022-10-24T23:48:06.850Z,18.03
2022-10-24T23:50:36.750Z,18.13
2022-10-24T23:53:22.419Z,18.16
2022-10-24T23:55:49.480Z,18.20
2022-10-24T23:58:16.693Z,18.23
